Time;durP1;ratioP1;P1;durP2;ratioP2;P2;SDS_P1;SDS_P2;PMS_P1;PMS_P2;Temp;Humidity;BMP_temperature;BMP_pressure;BME280_temperature;BME280_humidity;BME280_pressure;Samples;Min_cycle;Max_cycle;Signal;HPM_P1;HPM_P2
2023/05/16 00:01:59;;;;;;;3.80;3.40;;;;;;;20.04;54.62;101798.02;110421;1268;22402;-49
2023/05/16 00:04:26;;;;;;;5.50;3.30;;;;;;;20.05;54.49;101791.46;110475;1275;22131;-54
2023/05/16 00:06:54;;;;;;;3.90;3.40;;;;;;;20.06;54.44;101789.85;110419;1275;22238;-49
2023/05/16 00:09:21;;;;;;;4.70;3.60;;;;;;;20.06;54.47;101791.21;110472;1268;22435;-54
2023/05/16 00:11:49;;;;;;;3.30;2.90;;;;;;;20.07;54.42;101788.54;110510;1268;22369;-50
2023/05/16 00:14:16;;;;;;;5.90;3.30;;;;;;;20.07;54.52;101785.02;110425;1273;22124;-49
2023/05/16 00:16:43;;;;;;;3.10;2.90;;;;;;;20.07;54.60;101782.71;110397;1275;22392;-50
2023/05/16 00:19:10;;;;;;;3.50;3.20;;;;;;;20.08;54.75;101781.27;110422;1275;22092;-53
2023/05/16 00:21:37;;;;;;;3.50;2.90;;;;;;;20.06;54.77;101785.08;110449;1268;22287;-52
2023/05/16 00:24:04;;;;;;;4.30;3.40;;;;;;;20.05;54.74;101783.02;110480;1268;22300;-48
2023/05/16 00:26:31;;;;;;;3.60;3.30;;;;;;;20.06;54.69;101783.64;110392;1270;22289;-51
2023/05/16 00:28:58;;;;;;;3.90;3.40;;;;;;;20.06;54.82;101784.35;110214;1276;22189;-48
2023/05/16 00:31:25;;;;;;;3.00;2.80;;;;;;;20.07;54.78;101782.22;110280;1271;22418;-48
2023/05/16 00:33:53;;;;;;;3.60;3.30;;;;;;;20.06;54.90;101780.64;110102;1273;22124;-52
2023/05/16 00:36:20;;;;;;;3.80;3.20;;;;;;;20.00;55.21;101778.14;110478;1273;22372;-50
2023/05/16 00:38:49;;;;;;;3.80;3.50;;;;;;;20.00;55.31;101779.02;110442;1268;22383;-48
2023/05/16 00:41:16;;;;;;;3.90;3.50;;;;;;;20.04;55.24;101783.73;110498;1275;22408;-52
2023/05/16 00:43:44;;;;;;;3.90;3.50;;;;;;;20.04;55.30;101784.27;110418;1268;23313;-50
2023/05/16 00:46:11;;;;;;;4.20;3.70;;;;;;;20.04;55.28;101781.45;110530;1268;22383;-52
2023/05/16 00:48:38;;;;;;;4.10;3.50;;;;;;;20.03;55.35;101784.49;110133;1267;23271;-48
2023/05/16 00:51:08;;;;;;;4.00;3.40;;;;;;;20.02;55.50;101788.77;110514;1275;22123;-50
2023/05/16 00:53:35;;;;;;;4.80;3.60;;;;;;;20.02;55.55;101789.67;110470;1268;23148;-50
2023/05/16 00:56:04;;;;;;;3.30;3.00;;;;;;;20.01;55.60;101787.25;110458;1268;23001;-48
2023/05/16 00:58:32;;;;;;;4.80;2.90;;;;;;;20.00;55.73;101786.56;110402;1275;22165;-48
2023/05/16 01:01:02;;;;;;;4.40;3.10;;;;;;;20.00;55.82;101790.29;110396;1269;22174;-50
2023/05/16 01:03:30;;;;;;;3.80;3.50;;;;;;;20.00;56.02;101788.68;110124;1273;22137;-49
2023/05/16 01:05:58;;;;;;;4.00;3.50;;;;;;;20.00;56.00;101793.25;110494;1275;22107;-48
2023/05/16 01:08:25;;;;;;;5.20;4.10;;;;;;;20.01;56.16;101796.05;110160;1275;338167;-50
2023/05/16 01:11:33;;;;;;;4.50;3.20;;;;;;;20.01;56.19;101791.65;110438;1275;22405;-51
2023/05/16 01:14:18;;;;;;;3.80;3.10;;;;;;;20.01;56.14;101787.92;109967;1276;22404;-54
2023/05/16 01:16:51;;;;;;;5.50;3.40;;;;;;;20.02;56.11;101781.55;110015;1275;22911;-54
2023/05/16 01:19:36;;;;;;;3.40;3.10;;;;;;;20.02;55.98;101783.16;109958;1276;22812;-48
2023/05/16 01:22:20;;;;;;;3.40;3.10;;;;;;;20.02;55.97;101782.61;110017;1275;22352;-48
2023/05/16 01:25:05;;;;;;;4.30;3.30;;;;;;;20.02;56.00;101782.08;110017;1279;22873;-54
2023/05/16 01:27:33;;;;;;;3.10;2.90;;;;;;;20.03;56.37;101777.63;110005;1275;22391;-52
2023/05/16 01:30:00;;;;;;;3.50;2.90;;;;;;;20.03;56.56;101775.52;109857;1279;22346;-49
2023/05/16 01:32:27;;;;;;;4.10;3.50;;;;;;;20.05;56.56;101775.60;109952;1275;22329;-53
2023/05/16 01:34:54;;;;;;;4.20;3.80;;;;;;;20.05;56.73;101771.04;110035;1273;22228;-47
2023/05/16 01:37:28;;;;;;;4.60;4.00;;;;;;;20.05;56.67;101770.14;109993;1275;22183;-48
2023/05/16 01:39:58;;;;;;;3.50;3.20;;;;;;;20.06;56.72;101767.98;109916;1278;22411;-45
2023/05/16 01:42:26;;;;;;;3.60;3.30;;;;;;;20.06;56.83;101769.55;109798;1280;23037;-51
2023/05/16 01:45:13;;;;;;;3.90;3.10;;;;;;;20.07;56.71;101761.42;109749;1280;22796;-48
2023/05/16 01:47:41;;;;;;;3.40;3.10;;;;;;;20.07;56.73;101758.23;109811;1281;22771;-48
2023/05/16 01:50:16;;;;;;;4.20;3.80;;;;;;;20.07;56.47;101753.83;109905;1277;22323;-50
2023/05/16 01:52:45;;;;;;;4.20;3.50;;;;;;;20.07;56.54;101750.69;109938;1276;22154;-49
2023/05/16 01:55:15;;;;;;;4.10;3.70;;;;;;;20.07;56.53;101749.81;109803;1279;22321;-54
2023/05/16 01:57:42;;;;;;;6.20;4.00;;;;;;;20.07;56.49;101749.80;109921;1277;22231;-52
2023/05/16 02:00:10;;;;;;;4.30;3.70;;;;;;;20.06;56.49;101749.30;109938;1277;22144;-47
2023/05/16 02:02:40;;;;;;;3.70;3.30;;;;;;;20.07;56.60;101749.98;109978;1273;22338;-52
2023/05/16 02:05:08;;;;;;;3.90;3.60;;;;;;;20.06;56.61;101751.59;109981;1277;23031;-50
2023/05/16 02:07:35;;;;;;;5.20;3.20;;;;;;;20.06;56.52;101752.11;109979;1280;22285;-46
2023/05/16 02:10:03;;;;;;;6.40;3.50;;;;;;;20.07;56.55;101749.80;109982;1280;23084;-52
2023/05/16 02:12:34;;;;;;;4.30;3.80;;;;;;;20.07;56.42;101745.02;110039;1273;22228;-47
2023/05/16 02:15:01;;;;;;;4.20;3.50;;;;;;;20.08;56.20;101745.17;110038;1273;22359;-52
2023/05/16 02:17:28;;;;;;;4.30;3.50;;;;;;;20.07;56.10;101738.85;110222;1275;22826;-52
2023/05/16 02:19:56;;;;;;;4.10;3.70;;;;;;;20.07;55.91;101732.16;110533;1268;22451;-48
2023/05/16 02:22:23;;;;;;;5.30;4.30;;;;;;;20.07;55.87;101731.64;109298;1269;1002919;-47
2023/05/16 02:24:52;;;;;;;3.90;3.60;;;;;;;20.06;55.76;101730.80;110390;1275;22180;-51
2023/05/16 02:27:19;;;;;;;3.80;3.50;;;;;;;20.06;55.72;101727.13;110526;1268;23103;-46
2023/05/16 02:29:46;;;;;;;4.10;3.70;;;;;;;20.06;55.66;101730.81;110491;1272;22158;-52
2023/05/16 02:32:13;;;;;;;4.50;4.10;;;;;;;20.05;55.70;101735.27;110387;1275;22852;-51
2023/05/16 02:34:41;;;;;;;3.90;3.60;;;;;;;20.05;55.73;101740.73;110443;1267;22344;-50
2023/05/16 02:37:08;;;;;;;3.80;3.50;;;;;;;20.05;55.76;101744.26;110404;1270;23079;-48
2023/05/16 02:39:38;;;;;;;3.60;3.30;;;;;;;20.05;55.56;101751.78;110474;1271;22400;-48
2023/05/16 02:42:06;;;;;;;3.60;3.30;;;;;;;20.06;55.43;101749.83;110471;1268;22488;-54
2023/05/16 02:44:33;;;;;;;5.60;3.80;;;;;;;20.07;55.39;101746.61;110481;1269;23073;-53
2023/05/16 02:47:00;;;;;;;4.80;3.30;;;;;;;20.08;55.43;101745.15;110486;1275;22819;-54
2023/05/16 02:49:27;;;;;;;6.40;4.00;;;;;;;20.10;55.36;101744.73;110490;1268;22144;-52
2023/05/16 02:51:54;;;;;;;5.10;3.40;;;;;;;20.10;55.40;101743.47;110534;1268;23076;-46
2023/05/16 02:54:21;;;;;;;4.40;4.00;;;;;;;20.10;55.54;101744.35;110480;1268;22127;-48
2023/05/16 02:56:48;;;;;;;4.30;3.90;;;;;;;20.09;55.57;101743.73;110450;1270;22862;-47
2023/05/16 02:59:18;;;;;;;3.90;3.50;;;;;;;20.11;55.75;101745.20;110223;1272;22868;-47
2023/05/16 03:01:45;;;;;;;4.20;3.60;;;;;;;20.12;55.73;101744.65;110202;1267;23344;-46
2023/05/16 03:04:12;;;;;;;3.80;3.50;;;;;;;20.11;55.82;101745.17;110506;1268;22381;-46
2023/05/16 03:06:40;;;;;;;3.70;3.40;;;;;;;20.09;55.84;101742.80;110468;1268;22227;-46
2023/05/16 03:09:07;;;;;;;3.80;3.40;;;;;;;20.05;56.12;101746.36;110294;1271;22937;-47
2023/05/16 03:11:34;;;;;;;3.80;3.50;;;;;;;20.03;56.33;101757.55;110480;1268;22907;-46
2023/05/16 03:14:02;;;;;;;5.00;3.60;;;;;;;20.02;56.69;101762.88;110493;1273;22402;-54
2023/05/16 03:16:29;;;;;;;3.90;3.50;;;;;;;20.02;56.85;101763.75;110470;1268;23091;-46
2023/05/16 03:18:56;;;;;;;4.10;3.60;;;;;;;20.04;57.08;101762.45;110464;1270;22381;-50
2023/05/16 03:21:23;;;;;;;5.50;3.80;;;;;;;20.07;57.18;101764.40;110468;1275;22849;-48
2023/05/16 03:23:50;;;;;;;3.90;3.60;;;;;;;20.10;57.23;101767.63;110190;1273;22353;-52
2023/05/16 03:26:17;;;;;;;4.20;3.80;;;;;;;20.15;57.14;101777.42;110434;1269;22352;-53
2023/05/16 03:28:44;;;;;;;4.00;3.60;;;;;;;20.18;57.13;101776.60;110331;1275;22250;-56
2023/05/16 03:31:11;;;;;;;3.90;3.60;;;;;;;20.21;56.92;101778.95;109769;1269;1002432;-49
2023/05/16 03:33:39;;;;;;;5.10;3.90;;;;;;;20.24;56.82;101771.59;110400;1270;22349;-49
2023/05/16 03:36:06;;;;;;;4.00;3.70;;;;;;;20.26;56.70;101769.52;110160;1273;22407;-49
2023/05/16 03:38:33;;;;;;;5.10;3.60;;;;;;;20.29;56.53;101768.72;110497;1268;23153;-50
2023/05/16 03:41:00;;;;;;;4.10;3.70;;;;;;;20.31;56.44;101768.60;110231;1273;22292;-52
2023/05/16 03:43:27;;;;;;;4.70;3.80;;;;;;;20.33;56.27;101772.73;110327;1276;22165;-49
2023/05/16 03:45:54;;;;;;;4.00;3.70;;;;;;;20.35;56.07;101774.59;110543;1275;22564;-46
2023/05/16 03:48:21;;;;;;;4.20;3.70;;;;;;;20.37;55.92;101779.23;110510;1272;22366;-47
2023/05/16 03:50:50;;;;;;;4.00;3.50;;;;;;;20.41;55.91;101775.02;110531;1268;22285;-49
2023/05/16 03:53:17;;;;;;;4.60;3.30;;;;;;;20.46;55.82;101774.62;110506;1268;22365;-46
2023/05/16 03:55:44;;;;;;;3.50;3.20;;;;;;;20.51;55.52;101768.39;110515;1275;22356;-46
2023/05/16 03:58:15;;;;;;;3.50;3.20;;;;;;;20.56;55.35;101764.42;110507;1272;22802;-46
2023/05/16 04:00:42;;;;;;;4.10;3.70;;;;;;;20.63;54.99;101763.42;110078;1274;22278;-49
2023/05/16 04:03:10;;;;;;;4.20;3.80;;;;;;;20.68;54.67;101765.45;110536;1272;23001;-45
2023/05/16 04:05:37;;;;;;;4.10;3.60;;;;;;;20.73;54.24;101766.44;110451;1269;22528;-49
2023/05/16 04:08:04;;;;;;;3.80;3.50;;;;;;;20.78;54.11;101758.79;110430;1268;22114;-55
2023/05/16 04:10:31;;;;;;;4.80;4.10;;;;;;;20.81;54.09;101754.04;110542;1269;22138;-47
2023/05/16 04:12:58;;;;;;;4.80;3.40;;;;;;;20.84;54.13;101752.51;110539;1268;22111;-49
2023/05/16 04:15:25;;;;;;;3.70;3.40;;;;;;;20.86;54.18;101753.82;110517;1268;22376;-50
2023/05/16 04:17:52;;;;;;;4.40;3.30;;;;;;;20.88;54.19;101758.10;110516;1268;22781;-49
2023/05/16 04:20:19;;;;;;;4.40;3.40;;;;;;;20.91;54.18;101760.10;110555;1268;22111;-46
2023/05/16 04:22:47;;;;;;;3.90;3.50;;;;;;;20.95;54.01;101763.92;110460;1268;22411;-49
2023/05/16 04:25:14;;;;;;;3.90;3.60;;;;;;;20.99;53.98;101768.31;110553;1268;22277;-49
2023/05/16 04:27:41;;;;;;;4.50;3.90;;;;;;;21.02;53.94;101767.14;110528;1275;22399;-47
2023/05/16 04:30:10;;;;;;;4.00;3.50;;;;;;;21.04;53.73;101768.32;110454;1273;23061;-51
2023/05/16 04:32:37;;;;;;;5.90;3.80;;;;;;;21.05;53.62;101777.75;110282;1275;23297;-48
2023/05/16 04:35:04;;;;;;;6.30;4.10;;;;;;;21.07;53.46;101781.95;110526;1275;22616;-49
2023/05/16 04:37:31;;;;;;;6.30;3.80;;;;;;;21.08;53.28;101785.20;110515;1275;22149;-51
2023/05/16 04:39:59;;;;;;;7.90;3.90;;;;;;;21.10;53.08;101785.33;110559;1268;22855;-46
2023/05/16 04:42:26;;;;;;;4.20;3.80;;;;;;;21.10;53.06;101783.56;110445;1275;22301;-46
2023/05/16 04:44:53;;;;;;;3.40;3.10;;;;;;;21.10;53.14;101779.86;110474;1268;22906;-50
2023/05/16 04:47:20;;;;;;;4.30;3.90;;;;;;;21.08;53.40;101784.00;110539;1267;22339;-51
2023/05/16 04:49:47;;;;;;;4.70;3.50;;;;;;;21.05;53.34;101786.61;110281;1275;22376;-50
2023/05/16 04:52:14;;;;;;;3.90;3.60;;;;;;;21.04;53.42;101793.15;110555;1268;22280;-46
2023/05/16 04:54:41;;;;;;;4.40;3.70;;;;;;;21.05;53.37;101795.05;110437;1275;22694;-46
2023/05/16 04:57:08;;;;;;;3.90;3.50;;;;;;;21.06;53.42;101791.83;110521;1268;22113;-47
2023/05/16 04:59:35;;;;;;;4.00;3.40;;;;;;;21.06;53.44;101789.73;110501;1268;22181;-48
2023/05/16 05:02:03;;;;;;;3.90;3.50;;;;;;;21.08;53.48;101787.35;110454;1271;22914;-50
2023/05/16 05:04:30;;;;;;;4.20;3.80;;;;;;;21.12;53.53;101787.66;110127;1275;22353;-47
2023/05/16 05:06:57;;;;;;;4.30;3.40;;;;;;;21.17;53.46;101783.39;110466;1271;22073;-51
2023/05/16 05:09:24;;;;;;;4.00;3.60;;;;;;;21.23;53.31;101780.95;110268;1269;22497;-46
2023/05/16 05:11:51;;;;;;;4.10;3.70;;;;;;;21.29;53.20;101778.73;108995;1268;1002441;-50
2023/05/16 05:14:18;;;;;;;5.30;3.70;;;;;;;21.34;53.17;101783.40;110558;1272;22375;-50
2023/05/16 05:16:45;;;;;;;4.20;3.40;;;;;;;21.37;53.07;101786.77;110224;1271;22424;-49
2023/05/16 05:19:12;;;;;;;4.30;3.90;;;;;;;21.42;52.75;101791.45;110463;1269;22128;-49
2023/05/16 05:21:40;;;;;;;4.90;3.60;;;;;;;21.47;52.74;101795.77;110281;1271;22512;-47
2023/05/16 05:24:07;;;;;;;3.80;3.50;;;;;;;21.52;52.51;101799.08;110581;1272;22125;-49
2023/05/16 05:26:33;;;;;;;4.90;3.70;;;;;;;21.58;52.47;101799.64;110427;1275;23179;-46
2023/05/16 05:29:00;;;;;;;3.80;3.50;;;;;;;21.64;52.47;101796.14;110544;1275;22242;-49
2023/05/16 05:31:34;;;;;;;4.90;4.30;;;;;;;21.72;52.24;101798.73;110584;1269;22289;-52
2023/05/16 05:34:02;;;;;;;5.20;4.10;;;;;;;21.78;52.08;101799.98;110549;1268;22514;-52
2023/05/16 05:36:29;;;;;;;4.80;3.50;;;;;;;21.87;52.00;101799.03;110157;1269;23052;-51
2023/05/16 05:38:56;;;;;;;3.90;3.40;;;;;;;21.99;51.93;101799.80;110574;1268;22309;-49
2023/05/16 05:41:23;;;;;;;4.00;3.50;;;;;;;22.17;51.53;101801.48;110261;1272;22346;-46
2023/05/16 05:43:51;;;;;;;4.90;3.90;;;;;;;22.42;51.13;101790.03;110522;1269;22117;-47
2023/05/16 05:46:18;;;;;;;4.30;3.40;;;;;;;22.80;50.75;101789.73;110342;1271;22923;-50
2023/05/16 05:48:45;;;;;;;5.90;3.90;;;;;;;23.42;49.46;101791.59;110527;1272;23159;-48
2023/05/16 05:51:13;;;;;;;4.20;3.80;;;;;;;23.96;48.23;101789.41;110306;1272;22151;-52
2023/05/16 05:53:40;;;;;;;3.60;3.10;;;;;;;24.51;46.63;101791.10;110527;1272;22356;-47
2023/05/16 05:56:07;;;;;;;3.10;2.90;;;;;;;24.98;45.62;101798.92;110524;1269;22137;-52
2023/05/16 05:58:34;;;;;;;3.60;3.30;;;;;;;25.46;44.73;101801.73;110482;1269;22319;-51
2023/05/16 06:01:01;;;;;;;5.70;2.80;;;;;;;25.98;43.28;101803.49;110552;1275;22770;-52
2023/05/16 06:03:28;;;;;;;3.60;3.10;;;;;;;26.48;42.27;101801.86;110579;1268;22343;-52
2023/05/16 06:05:55;;;;;;;4.40;3.10;;;;;;;26.96;41.34;101800.33;110559;1275;23206;-49
2023/05/16 06:08:22;;;;;;;3.90;3.30;;;;;;;27.36;40.54;101797.88;110206;1273;22172;-52
2023/05/16 06:10:49;;;;;;;4.40;3.10;;;;;;;27.69;39.78;101796.80;110237;1275;22460;-48
2023/05/16 06:13:16;;;;;;;4.40;3.10;;;;;;;27.99;39.17;101797.63;110219;1275;22358;-50
2023/05/16 06:15:43;;;;;;;3.30;3.00;;;;;;;28.32;38.49;101797.36;110478;1268;22302;-46
2023/05/16 06:18:10;;;;;;;3.00;2.80;;;;;;;28.57;37.68;101796.58;110541;1275;23073;-55
2023/05/16 06:20:37;;;;;;;3.40;2.80;;;;;;;28.78;37.16;101797.71;110534;1268;22421;-51
2023/05/16 06:23:04;;;;;;;3.70;2.90;;;;;;;28.98;36.76;101795.52;110555;1275;22373;-52
2023/05/16 06:25:31;;;;;;;4.80;2.60;;;;;;;29.16;36.50;101796.75;110454;1273;23097;-46
2023/05/16 06:27:58;;;;;;;2.80;2.50;;;;;;;29.29;36.36;101796.16;110535;1269;22316;-47
2023/05/16 06:30:25;;;;;;;3.70;3.00;;;;;;;29.39;35.82;101796.89;110488;1268;22123;-50
2023/05/16 06:32:52;;;;;;;3.10;2.80;;;;;;;29.45;35.61;101793.52;110496;1268;22168;-51
2023/05/16 06:35:19;;;;;;;3.20;2.70;;;;;;;29.49;35.43;101791.73;110468;1268;22286;-46
2023/05/16 06:37:46;;;;;;;3.50;2.50;;;;;;;29.48;35.17;101789.71;110588;1268;22368;-54
2023/05/16 06:40:13;;;;;;;2.80;2.40;;;;;;;29.29;35.17;101790.64;110253;1269;22173;-48
2023/05/16 06:42:40;;;;;;;2.80;2.50;;;;;;;29.31;34.95;101790.44;110567;1269;23180;-47
2023/05/16 06:45:08;;;;;;;2.70;2.40;;;;;;;29.36;35.11;101793.23;110535;1275;22365;-50
2023/05/16 06:47:35;;;;;;;6.40;2.70;;;;;;;29.41;34.97;101794.39;110225;1272;22347;-46
2023/05/16 06:50:02;;;;;;;2.60;2.30;;;;;;;29.49;34.72;101792.47;110537;1275;22278;-48
2023/05/16 06:52:29;;;;;;;2.80;2.40;;;;;;;29.50;34.52;101793.69;110502;1273;23104;-49
2023/05/16 06:54:56;;;;;;;3.10;2.80;;;;;;;29.42;34.59;101790.23;110500;1275;22464;-51
2023/05/16 06:57:23;;;;;;;4.00;2.90;;;;;;;29.32;34.85;101791.06;110207;1276;22135;-46
2023/05/16 06:59:50;;;;;;;4.10;2.40;;;;;;;29.20;34.94;101792.12;110257;1274;22375;-48
2023/05/16 07:02:17;;;;;;;2.70;2.30;;;;;;;29.06;35.05;101785.41;110259;1272;22185;-50
2023/05/16 07:04:45;;;;;;;3.00;2.60;;;;;;;28.90;35.19;101785.29;110489;1275;22373;-49
2023/05/16 07:07:12;;;;;;;2.90;2.70;;;;;;;28.69;35.43;101784.33;110556;1275;22121;-50
2023/05/16 07:09:39;;;;;;;2.90;2.70;;;;;;;28.44;35.71;101783.49;110515;1273;22187;-49
2023/05/16 07:12:06;;;;;;;4.50;2.80;;;;;;;28.20;36.06;101779.74;110284;1272;23042;-48
2023/05/16 07:14:34;;;;;;;3.70;2.70;;;;;;;27.97;36.51;101777.98;110544;1275;22077;-52
2023/05/16 07:17:01;;;;;;;3.00;2.70;;;;;;;27.77;36.88;101775.69;110565;1268;22954;-46
2023/05/16 07:19:28;;;;;;;4.30;2.90;;;;;;;27.63;37.02;101778.73;110381;1269;22429;-53
2023/05/16 07:21:55;;;;;;;3.30;2.50;;;;;;;27.50;37.45;101780.11;110565;1272;22347;-54
2023/05/16 07:24:22;;;;;;;3.00;2.70;;;;;;;27.40;37.79;101780.13;110545;1269;23090;-50
2023/05/16 07:26:50;;;;;;;3.40;2.60;;;;;;;27.35;38.06;101787.79;110479;1269;22127;-52
2023/05/16 07:29:17;;;;;;;2.50;2.10;;;;;;;27.38;38.10;101788.48;110499;1275;22118;-49
2023/05/16 07:31:45;;;;;;;3.40;2.40;;;;;;;27.43;37.96;101791.52;110582;1273;22314;-50
2023/05/16 07:34:12;;;;;;;4.80;2.50;;;;;;;27.48;37.89;101797.54;110543;1272;22167;-50
2023/05/16 07:36:39;;;;;;;3.10;2.70;;;;;;;27.50;38.01;101800.42;110534;1275;22120;-46
2023/05/16 07:39:06;;;;;;;3.10;2.50;;;;;;;27.51;37.98;101800.52;110569;1269;22989;-52
2023/05/16 07:41:33;;;;;;;3.50;3.20;;;;;;;27.49;37.92;101803.68;110567;1273;22139;-47
2023/05/16 07:44:00;;;;;;;2.90;2.30;;;;;;;27.46;37.98;101803.23;110534;1270;22349;-48
2023/05/16 07:46:27;;;;;;;3.60;2.90;;;;;;;27.43;37.88;101802.94;110537;1275;22170;-50
2023/05/16 07:48:54;;;;;;;3.10;2.60;;;;;;;27.38;37.93;101802.52;110292;1272;22232;-50
2023/05/16 07:51:21;;;;;;;6.20;2.50;;;;;;;27.33;37.91;101801.61;110473;1269;22389;-48
2023/05/16 07:53:48;;;;;;;4.10;2.90;;;;;;;27.27;38.18;101799.45;110465;1270;22175;-46
2023/05/16 07:56:15;;;;;;;6.30;3.30;;;;;;;27.21;38.52;101800.21;110464;1270;22314;-51
2023/05/16 07:58:42;;;;;;;5.20;2.80;;;;;;;27.16;38.83;101799.52;110548;1275;22196;-50
2023/05/16 08:01:10;;;;;;;2.70;2.50;;;;;;;27.12;38.84;101800.73;110543;1269;22418;-48
2023/05/16 08:03:37;;;;;;;4.10;3.20;;;;;;;27.08;39.20;101804.73;110543;1268;22285;-50
2023/05/16 08:06:05;;;;;;;5.20;3.10;;;;;;;27.06;39.35;101806.22;110038;1271;23142;-47
2023/05/16 08:08:32;;;;;;;3.00;2.70;;;;;;;27.02;39.48;101807.89;110041;1278;22195;-51
2023/05/16 08:10:59;;;;;;;6.50;2.70;;;;;;;26.99;39.31;101811.17;110161;1276;22329;-46
2023/05/16 08:13:26;;;;;;;3.70;2.80;;;;;;;26.94;39.29;101812.05;110139;1273;22319;-47
2023/05/16 08:15:53;;;;;;;3.50;3.20;;;;;;;26.90;39.50;101813.44;110169;1276;22990;-46
2023/05/16 08:18:20;;;;;;;4.50;3.10;;;;;;;26.86;39.43;101806.77;110150;1276;22160;-47
2023/05/16 08:20:48;;;;;;;3.80;2.80;;;;;;;26.82;39.46;101807.63;110026;1278;22313;-55
2023/05/16 08:23:15;;;;;;;4.50;3.10;;;;;;;26.78;39.03;101805.80;110191;1275;22254;-46
2023/05/16 08:25:43;;;;;;;4.60;3.30;;;;;;;26.74;39.34;101800.58;109988;1276;22311;-48
2023/05/16 08:28:10;;;;;;;4.60;2.80;;;;;;;26.69;39.28;101801.08;110164;1272;22251;-54
2023/05/16 08:30:37;;;;;;;5.30;2.90;;;;;;;26.64;39.03;101796.13;110226;1273;22314;-50
2023/05/16 08:33:09;;;;;;;4.70;3.40;;;;;;;26.59;38.93;101797.19;110157;1273;22202;-47
2023/05/16 08:35:36;;;;;;;4.60;3.20;;;;;;;26.54;39.09;101792.56;110205;1270;22892;-47
2023/05/16 08:38:03;;;;;;;3.10;2.80;;;;;;;26.50;38.47;101795.16;110507;1271;22825;-49
2023/05/16 08:40:30;;;;;;;3.20;2.90;;;;;;;26.46;38.60;101795.11;110527;1269;22410;-48
2023/05/16 08:42:57;;;;;;;4.00;3.20;;;;;;;26.42;38.72;101790.94;110437;1269;22939;-52
2023/05/16 08:45:24;;;;;;;4.20;2.80;;;;;;;26.40;38.99;101790.35;110567;1272;23071;-50
2023/05/16 08:47:53;;;;;;;4.50;2.80;;;;;;;26.39;39.34;101786.87;110178;1270;22946;-50
2023/05/16 08:50:21;;;;;;;3.60;2.30;;;;;;;26.40;39.42;101784.33;110153;1272;22385;-49
2023/05/16 08:52:50;;;;;;;4.00;2.90;;;;;;;26.43;39.21;101784.14;110242;1273;23143;-46
2023/05/16 08:55:18;;;;;;;3.00;2.70;;;;;;;26.49;38.66;101782.83;110057;1275;22459;-50
2023/05/16 08:57:45;;;;;;;5.90;3.00;;;;;;;26.55;38.52;101785.05;110193;1278;22468;-52
2023/05/16 09:00:13;;;;;;;4.50;2.40;;;;;;;26.57;38.73;101781.98;109998;1278;23015;-52
2023/05/16 09:02:40;;;;;;;3.80;2.80;;;;;;;26.59;38.42;101776.86;110166;1277;22563;-47
2023/05/16 09:05:10;;;;;;;3.60;2.70;;;;;;;26.61;38.12;101774.63;110184;1276;23059;-53
2023/05/16 09:07:37;;;;;;;3.90;3.00;;;;;;;26.59;38.15;101771.39;110157;1276;23003;-52
2023/05/16 09:10:05;;;;;;;4.30;2.70;;;;;;;26.57;38.24;101769.20;110158;1278;22401;-51
2023/05/16 09:12:33;;;;;;;6.00;3.30;;;;;;;26.55;38.21;101763.83;110039;1278;22351;-49
2023/05/16 09:15:04;;;;;;;4.50;2.90;;;;;;;26.51;37.98;101765.17;109964;1272;22363;-47
2023/05/16 09:17:47;;;;;;;3.20;2.90;;;;;;;26.47;38.01;101766.55;109272;1272;1002439;-51
2023/05/16 09:20:18;;;;;;;5.70;3.20;;;;;;;26.41;37.95;101767.14;110508;1272;22290;-47
2023/05/16 09:22:53;;;;;;;4.40;2.90;;;;;;;26.36;37.92;101769.33;110556;1275;22323;-53
2023/05/16 09:25:20;;;;;;;3.50;2.70;;;;;;;26.30;38.17;101769.05;110542;1269;22980;-46
2023/05/16 09:27:58;;;;;;;4.20;2.80;;;;;;;26.24;38.82;101771.44;110513;1269;22105;-55
2023/05/16 09:30:30;;;;;;;4.50;3.20;;;;;;;26.20;38.86;101772.60;110487;1268;22428;-54
2023/05/16 09:32:57;;;;;;;3.70;3.20;;;;;;;26.18;38.85;101775.27;110446;1275;22840;-48
2023/05/16 09:35:25;;;;;;;4.10;3.00;;;;;;;26.17;39.07;101768.73;110274;1274;22861;-46
2023/05/16 09:38:15;;;;;;;3.10;2.80;;;;;;;26.20;39.52;101772.46;110449;1275;22359;-52
2023/05/16 09:40:43;;;;;;;5.20;3.00;;;;;;;26.26;39.67;101778.42;110482;1276;22341;-46
2023/05/16 09:43:10;;;;;;;4.10;3.20;;;;;;;26.32;39.35;101780.83;110547;1272;22375;-50
2023/05/16 09:45:37;;;;;;;4.20;3.60;;;;;;;26.38;39.05;101778.78;110467;1275;22430;-50
2023/05/16 09:48:05;;;;;;;2.90;2.70;;;;;;;26.43;39.17;101780.55;110528;1275;22325;-50
2023/05/16 09:50:33;;;;;;;4.70;3.10;;;;;;;26.49;39.42;101781.70;110558;1272;22136;-50
2023/05/16 09:53:01;;;;;;;4.30;3.10;;;;;;;26.55;39.16;101775.05;110478;1275;22089;-48
2023/05/16 09:55:28;;;;;;;7.10;3.50;;;;;;;26.59;38.84;101779.23;110223;1269;22295;-46
2023/05/16 09:57:56;;;;;;;3.60;3.30;;;;;;;26.61;38.87;101778.66;110225;1276;22388;-46
2023/05/16 10:00:28;;;;;;;6.30;3.50;;;;;;;26.64;39.04;101778.80;110257;1272;22426;-52
2023/05/16 10:02:56;;;;;;;4.80;3.40;;;;;;;26.69;38.61;101778.69;110456;1271;22372;-46
2023/05/16 10:05:25;;;;;;;4.10;3.70;;;;;;;26.69;38.57;101774.20;110537;1268;22401;-47
2023/05/16 10:07:55;;;;;;;6.60;3.80;;;;;;;26.70;38.64;101774.46;110522;1268;22397;-46
2023/05/16 10:10:22;;;;;;;6.00;3.90;;;;;;;26.71;38.75;101772.47;110526;1273;22137;-50
2023/05/16 10:12:52;;;;;;;6.10;4.20;;;;;;;26.70;38.89;101774.48;110230;1275;23054;-49
2023/05/16 10:15:19;;;;;;;6.80;4.40;;;;;;;26.66;39.15;101773.38;110425;1275;22299;-50
2023/05/16 10:17:50;;;;;;;5.70;4.00;;;;;;;26.62;39.39;101773.09;110339;1269;22294;-47
2023/05/16 10:20:17;;;;;;;5.00;4.30;;;;;;;26.58;39.36;101772.29;110530;1268;22363;-50
2023/05/16 10:22:44;;;;;;;5.60;4.40;;;;;;;26.57;39.35;101774.69;110452;1268;22996;-53
2023/05/16 10:25:19;;;;;;;4.50;4.10;;;;;;;26.56;39.13;101778.89;110493;1275;22277;-50
2023/05/16 10:27:46;;;;;;;4.60;4.20;;;;;;;26.55;39.44;101775.56;110318;1274;22819;-50
2023/05/16 10:30:13;;;;;;;7.50;5.00;;;;;;;26.56;39.62;101774.77;110191;1275;22218;-51
2023/05/16 10:32:44;;;;;;;5.40;4.30;;;;;;;26.57;39.79;101774.70;110395;1268;22078;-54
2023/05/16 10:35:11;;;;;;;5.60;4.10;;;;;;;26.58;39.95;101770.76;110582;1272;22982;-46
2023/05/16 10:37:38;;;;;;;8.40;5.00;;;;;;;26.55;39.48;101770.75;110353;1272;23198;-50
2023/05/16 10:40:06;;;;;;;4.50;4.10;;;;;;;26.52;39.11;101767.41;110487;1270;22295;-51
2023/05/16 10:42:33;;;;;;;4.30;3.90;;;;;;;26.50;39.03;101765.66;110146;1269;22325;-46
2023/05/16 10:45:16;;;;;;;5.00;4.00;;;;;;;26.47;38.82;101765.11;110041;1277;23130;-46
2023/05/16 10:48:03;;;;;;;4.70;4.20;;;;;;;26.39;39.51;101761.63;110242;1275;22157;-47
2023/05/16 10:50:35;;;;;;;6.00;4.40;;;;;;;26.30;40.38;101763.36;110225;1273;22317;-47
2023/05/16 10:53:17;;;;;;;4.60;3.80;;;;;;;26.27;40.34;101760.59;110212;1277;22321;-50
2023/05/16 10:56:02;;;;;;;7.60;4.20;;;;;;;26.33;39.88;101758.52;110215;1271;22195;-48
2023/05/16 10:58:36;;;;;;;5.10;3.80;;;;;;;26.33;39.86;101758.16;110262;1271;23004;-49
2023/05/16 11:01:30;;;;;;;4.00;3.50;;;;;;;26.30;39.34;101761.24;110216;1270;22351;-46
2023/05/16 11:03:58;;;;;;;5.00;3.90;;;;;;;26.22;39.52;101760.91;110273;1273;22815;-50
2023/05/16 11:06:41;;;;;;;4.60;3.60;;;;;;;26.16;40.09;101763.50;110272;1277;22152;-51
2023/05/16 11:09:14;;;;;;;6.70;4.00;;;;;;;26.10;39.98;101766.21;109991;1277;22390;-50
2023/05/16 11:11:42;;;;;;;3.90;3.50;;;;;;;26.05;39.76;101766.73;109964;1277;22307;-46
2023/05/16 11:18:07;;;;;;;5.80;4.00;;;;;;;25.26;41.72;101759.66;104930;1287;564998;-49
2023/05/16 11:20:37;;;;;;;6.50;3.90;;;;;;;25.96;40.68;101755.98;107092;1273;22622;-49
2023/05/16 11:23:24;;;;;;;7.80;4.30;;;;;;;26.00;40.82;101749.51;106778;1273;22527;-49
2023/05/16 11:25:56;;;;;;;4.10;3.70;;;;;;;25.93;40.39;101747.81;106762;1279;24207;-50
2023/05/16 11:28:24;;;;;;;4.80;3.50;;;;;;;25.87;40.45;101743.09;106466;1273;23425;-50